Time;durP1;ratioP1;P1;durP2;ratioP2;P2;SDS_P1;SDS_P2;PMS_P1;PMS_P2;Temp;Humidity;BMP_temperature;BMP_pressure;BME280_temperature;BME280_humidity;BME280_pressure;Samples;Min_cycle;Max_cycle;Signal;HPM_P1;HPM_P2
2021/07/09 00:01:43;;;;;;;14.15;11.27;;;17.60;99.90;;;;;;4975933;28;20443;-68
2021/07/09 00:04:10;;;;;;;11.05;9.95;;;17.60;99.90;;;;;;4979277;28;20019;-69
2021/07/09 00:06:36;;;;;;;13.85;11.52;;;17.60;99.90;;;;;;4993896;28;20030;-88
2021/07/09 00:09:04;;;;;;;14.65;11.02;;;17.50;99.90;;;;;;4993649;28;20027;-88
2021/07/09 00:11:30;;;;;;;15.40;11.52;;;17.50;99.90;;;;;;5000860;28;20050;-67
2021/07/09 00:13:55;;;;;;;12.27;10.90;;;17.50;99.90;;;;;;5013282;28;20018;-74
2021/07/09 00:16:22;;;;;;;13.07;11.57;;;17.50;99.90;;;;;;4973969;28;20488;-67
2021/07/09 00:18:49;;;;;;;11.65;10.27;;;17.50;99.90;;;;;;4964194;28;20054;-67
2021/07/09 00:21:15;;;;;;;12.65;10.85;;;17.50;99.90;;;;;;4956658;28;20031;-78
2021/07/09 00:23:42;;;;;;;12.05;10.52;;;17.50;99.90;;;;;;4992494;28;20027;-66
2021/07/09 00:26:08;;;;;;;12.10;10.70;;;17.50;99.90;;;;;;4975258;28;20471;-69
2021/07/09 00:28:34;;;;;;;14.57;10.18;;;17.50;99.90;;;;;;4978579;28;20030;-67
2021/07/09 00:31:01;;;;;;;11.35;10.27;;;17.50;99.90;;;;;;4956856;28;20031;-67
2021/07/09 00:33:26;;;;;;;11.25;10.02;;;17.40;99.90;;;;;;4973325;28;20025;-67
2021/07/09 00:35:52;;;;;;;13.05;11.43;;;17.40;99.90;;;;;;4971176;28;20019;-66
2021/07/09 00:38:18;;;;;;;14.10;11.38;;;17.40;99.90;;;;;;4983131;28;20257;-66
2021/07/09 00:40:44;;;;;;;14.88;11.65;;;17.40;99.90;;;;;;4974076;28;20030;-67
2021/07/09 00:43:10;;;;;;;15.35;11.95;;;17.30;99.90;;;;;;4985806;28;20030;-66
2021/07/09 00:45:35;;;;;;;12.25;11.15;;;17.30;99.90;;;;;;4992803;28;20556;-67
2021/07/09 00:48:01;;;;;;;12.48;11.27;;;17.20;99.90;;;;;;4993469;28;20026;-66
2021/07/09 00:50:27;;;;;;;15.73;12.10;;;17.20;99.90;;;;;;4992914;28;20535;-66
2021/07/09 00:52:53;;;;;;;14.98;12.13;;;17.10;99.90;;;;;;4985911;28;20027;-67
2021/07/09 00:55:19;;;;;;;12.40;11.13;;;17.10;99.90;;;;;;4963831;28;20030;-69
2021/07/09 00:57:48;;;;;;;16.58;12.35;;;17.00;99.90;;;;;;4973950;28;20027;-67
2021/07/09 01:00:18;;;;;;;13.80;11.93;;;17.00;99.90;;;;;;4991415;28;20390;-67
2021/07/09 01:02:47;;;;;;;18.00;13.82;;;17.00;99.90;;;;;;4993292;28;20073;-67
2021/07/09 01:05:15;;;;;;;16.17;12.38;;;16.90;99.90;;;;;;4976968;28;20459;-67
2021/07/09 01:07:41;;;;;;;18.15;13.02;;;16.90;99.90;;;;;;4955738;28;20034;-66
2021/07/09 01:10:25;;;;;;;15.43;13.80;;;16.80;99.90;;;;;;4973327;28;20403;-67
2021/07/09 01:12:50;;;;;;;16.95;13.80;;;16.80;99.90;;;;;;4987300;28;20041;-66
2021/07/09 01:15:18;;;;;;;13.82;12.40;;;16.70;99.90;;;;;;4979810;28;20030;-68
2021/07/09 01:17:44;;;;;;;15.57;13.90;;;16.60;99.90;;;;;;4978336;28;20049;-67
2021/07/09 01:20:13;;;;;;;16.55;13.20;;;16.50;99.90;;;;;;4992768;28;20099;-67
2021/07/09 01:22:42;;;;;;;16.40;14.70;;;16.40;99.90;;;;;;4992817;28;20085;-69
2021/07/09 01:25:14;;;;;;;15.95;14.20;;;16.40;99.90;;;;;;4992776;28;20049;-74
2021/07/09 01:27:42;;;;;;;16.52;14.82;;;16.30;99.90;;;;;;4975248;28;20111;-80
2021/07/09 01:30:12;;;;;;;17.58;14.52;;;16.20;99.90;;;;;;4987358;28;20025;-68
2021/07/09 01:32:37;;;;;;;16.60;14.73;;;16.20;99.90;;;;;;4984947;28;20031;-68
2021/07/09 01:35:04;;;;;;;17.88;14.35;;;16.20;99.90;;;;;;4992245;28;20445;-68
2021/07/09 01:37:30;;;;;;;15.70;13.73;;;16.10;99.90;;;;;;4993046;28;20053;-68
2021/07/09 01:39:56;;;;;;;17.17;13.95;;;16.10;99.90;;;;;;4992623;28;20026;-67
2021/07/09 01:42:21;;;;;;;18.80;15.07;;;16.00;99.90;;;;;;4991263;28;20050;-68
2021/07/09 01:44:47;;;;;;;16.13;14.48;;;16.00;99.90;;;;;;4993161;28;20486;-67
2021/07/09 01:47:12;;;;;;;16.30;14.60;;;16.00;99.90;;;;;;4992707;28;20042;-68
2021/07/09 01:50:08;;;;;;;16.33;14.60;;;16.10;99.90;;;;;;4993641;28;20028;-85
2021/07/09 01:52:34;;;;;;;16.33;14.63;;;16.10;99.90;;;;;;4991757;28;20088;-67
2021/07/09 01:55:00;;;;;;;16.83;14.85;;;16.10;99.90;;;;;;4996433;28;20093;-68
2021/07/09 01:57:29;;;;;;;19.00;14.15;;;16.10;99.90;;;;;;4995513;28;20030;-68
2021/07/09 01:59:56;;;;;;;15.80;14.15;;;16.10;99.90;;;;;;4996128;28;20370;-67
2021/07/09 02:02:21;;;;;;;15.75;13.93;;;16.10;99.90;;;;;;4996003;28;20026;-68
2021/07/09 02:04:48;;;;;;;18.77;14.65;;;16.10;99.90;;;;;;4995406;28;20390;-69
2021/07/09 02:07:15;;;;;;;17.42;15.18;;;16.10;99.90;;;;;;4995594;28;20487;-68
2021/07/09 02:09:44;;;;;;;15.55;13.85;;;16.10;99.90;;;;;;4995407;28;20105;-67
2021/07/09 02:12:10;;;;;;;16.58;14.75;;;16.10;99.90;;;;;;4995941;28;20026;-67
2021/07/09 02:14:36;;;;;;;18.60;15.13;;;16.10;99.90;;;;;;4996274;28;20496;-67
2021/07/09 02:17:06;;;;;;;16.92;15.13;;;16.10;99.90;;;;;;4995097;28;20030;-72
2021/07/09 02:19:31;;;;;;;16.50;14.00;;;16.10;99.90;;;;;;4978916;28;20122;-68
2021/07/09 02:22:00;;;;;;;17.52;14.65;;;16.00;99.90;;;;;;4995991;28;20549;-67
2021/07/09 02:24:26;;;;;;;16.23;13.75;;;16.00;99.90;;;;;;4995018;28;20018;-67
2021/07/09 02:26:51;;;;;;;15.68;14.07;;;16.00;99.90;;;;;;4995497;28;20042;-70
2021/07/09 02:29:17;;;;;;;20.20;14.93;;;16.00;99.90;;;;;;4996133;28;20057;-67
2021/07/09 02:31:42;;;;;;;18.27;15.32;;;16.00;99.90;;;;;;4995641;28;20101;-67
2021/07/09 02:34:08;;;;;;;18.92;13.85;;;15.90;99.90;;;;;;4978032;28;20149;-69
2021/07/09 02:36:34;;;;;;;17.45;14.75;;;15.90;99.90;;;;;;4995394;28;20030;-76
2021/07/09 02:38:59;;;;;;;18.17;13.88;;;15.80;99.90;;;;;;4994965;28;20030;-67
2021/07/09 02:41:25;;;;;;;15.35;13.75;;;15.80;99.90;;;;;;4995201;28;20027;-71
2021/07/09 02:43:50;;;;;;;15.85;14.15;;;15.70;99.90;;;;;;4995591;28;20030;-68
2021/07/09 02:46:16;;;;;;;18.13;14.18;;;15.70;99.90;;;;;;4994593;28;20099;-68
2021/07/09 02:48:41;;;;;;;16.48;13.93;;;15.60;99.90;;;;;;4977739;28;20038;-68
2021/07/09 02:51:07;;;;;;;13.32;12.02;;;15.60;99.90;;;;;;4995100;28;20026;-68
2021/07/09 02:53:32;;;;;;;14.85;13.27;;;15.60;99.90;;;;;;4977394;28;20030;-70
2021/07/09 02:55:58;;;;;;;15.50;13.18;;;15.60;99.90;;;;;;4994992;28;20027;-68
2021/07/09 02:58:23;;;;;;;16.23;14.52;;;15.50;99.90;;;;;;4977754;28;20467;-67
2021/07/09 03:00:49;;;;;;;16.80;15.00;;;15.50;99.90;;;;;;4994177;28;20120;-68
2021/07/09 03:03:14;;;;;;;19.98;14.38;;;15.50;99.90;;;;;;4994137;28;20030;-68
2021/07/09 03:05:40;;;;;;;15.32;13.73;;;15.50;99.90;;;;;;4994486;28;20390;-68
2021/07/09 03:08:05;;;;;;;19.35;15.93;;;15.40;99.90;;;;;;4994352;28;20034;-68
2021/07/09 03:10:31;;;;;;;18.63;14.75;;;15.40;99.90;;;;;;4994803;28;20105;-68
2021/07/09 03:12:56;;;;;;;16.20;14.50;;;15.40;99.90;;;;;;4977208;28;20019;-85
2021/07/09 03:15:22;;;;;;;16.42;14.48;;;15.40;99.90;;;;;;4994195;28;20037;-74
2021/07/09 03:17:47;;;;;;;18.85;15.30;;;15.40;99.90;;;;;;4995218;28;20081;-68
2021/07/09 03:20:13;;;;;;;16.13;14.18;;;15.50;99.90;;;;;;4993752;28;20018;-68
2021/07/09 03:22:39;;;;;;;19.10;14.23;;;15.50;99.90;;;;;;4977601;28;20491;-71
2021/07/09 03:25:08;;;;;;;15.60;13.30;;;15.50;99.90;;;;;;4994205;28;20041;-67
2021/07/09 03:27:34;;;;;;;18.25;12.68;;;15.40;99.90;;;;;;4994235;28;20034;-67
2021/07/09 03:29:59;;;;;;;16.25;12.27;;;15.40;99.90;;;;;;4994688;28;20033;-68
2021/07/09 03:32:25;;;;;;;14.70;13.20;;;15.40;99.90;;;;;;4994499;28;20438;-67
2021/07/09 03:34:50;;;;;;;16.10;13.57;;;15.30;99.90;;;;;;4976222;28;20085;-67
2021/07/09 03:37:16;;;;;;;15.35;12.52;;;15.30;99.90;;;;;;4994398;28;20061;-69
2021/07/09 03:39:43;;;;;;;17.08;13.20;;;15.20;99.90;;;;;;4977178;28;20133;-68
2021/07/09 03:42:08;;;;;;;20.73;13.45;;;15.20;99.90;;;;;;4993962;28;20505;-84
2021/07/09 03:44:34;;;;;;;14.32;11.73;;;15.20;99.90;;;;;;4993929;28;20030;-84
2021/07/09 03:46:59;;;;;;;14.32;12.82;;;15.10;99.90;;;;;;4976593;28;20030;-68
2021/07/09 03:49:25;;;;;;;15.90;12.63;;;15.00;99.90;;;;;;4993430;28;20030;-85
2021/07/09 03:51:50;;;;;;;15.02;11.98;;;15.00;99.90;;;;;;4994466;28;20030;-68
2021/07/09 03:54:16;;;;;;;14.32;12.85;;;15.00;99.90;;;;;;4994036;28;20023;-67
2021/07/09 03:56:41;;;;;;;13.60;12.32;;;14.90;99.90;;;;;;4975879;28;20061;-68
2021/07/09 03:59:07;;;;;;;12.73;11.50;;;14.90;99.90;;;;;;4993258;28;20030;-67
2021/07/09 04:01:32;;;;;;;13.63;11.80;;;14.80;99.90;;;;;;4994442;28;20026;-68
2021/07/09 04:03:58;;;;;;;15.25;12.07;;;14.80;99.90;;;;;;4993439;28;20029;-67
2021/07/09 04:06:23;;;;;;;14.55;13.15;;;14.80;99.90;;;;;;4993641;28;20464;-83
2021/07/09 04:08:49;;;;;;;15.93;14.20;;;14.80;99.90;;;;;;4993781;28;21936;-67
2021/07/09 04:11:15;;;;;;;17.83;13.57;;;14.80;99.90;;;;;;4992765;28;20487;-87
2021/07/09 04:13:40;;;;;;;15.73;14.13;;;14.80;99.90;;;;;;4992985;28;20064;-67
2021/07/09 04:16:06;;;;;;;19.50;15.43;;;14.90;99.90;;;;;;4993582;28;20018;-68
2021/07/09 04:18:34;;;;;;;15.73;13.88;;;14.90;99.90;;;;;;4993446;28;20076;-67
2021/07/09 04:21:00;;;;;;;16.88;14.23;;;15.00;99.90;;;;;;4993486;28;20015;-68
2021/07/09 04:23:26;;;;;;;15.25;13.70;;;15.10;99.90;;;;;;4992784;28;20037;-69
2021/07/09 04:25:51;;;;;;;18.23;15.02;;;15.10;99.90;;;;;;4993502;28;20386;-82
2021/07/09 04:28:17;;;;;;;17.45;15.65;;;15.20;99.90;;;;;;4994069;28;20023;-68
2021/07/09 04:30:43;;;;;;;19.05;15.40;;;15.30;99.90;;;;;;4992997;28;20019;-68
2021/07/09 04:33:08;;;;;;;20.40;16.73;;;15.50;99.90;;;;;;4975812;28;20113;-67
2021/07/09 04:35:34;;;;;;;22.65;16.80;;;15.50;99.90;;;;;;4993676;28;20090;-68
2021/07/09 04:37:59;;;;;;;18.83;15.55;;;15.60;99.90;;;;;;4992970;28;20109;-68
2021/07/09 04:40:25;;;;;;;19.58;15.63;;;15.70;99.90;;;;;;4975853;28;20034;-69
2021/07/09 04:42:51;;;;;;;20.23;14.75;;;15.70;99.90;;;;;;4993725;28;20034;-68
2021/07/09 04:45:16;;;;;;;19.02;15.52;;;15.80;99.90;;;;;;4991934;28;20077;-86
2021/07/09 04:47:42;;;;;;;17.73;15.85;;;15.80;99.90;;;;;;4993222;28;20134;-72
2021/07/09 04:50:09;;;;;;;17.52;15.65;;;15.80;99.90;;;;;;4992669;28;20097;-69
2021/07/09 04:52:34;;;;;;;18.15;15.95;;;15.80;99.90;;;;;;4992929;28;20066;-77
2021/07/09 04:55:00;;;;;;;18.23;16.23;;;15.70;99.90;;;;;;4993003;28;20454;-68
2021/07/09 04:57:26;;;;;;;22.02;17.42;;;15.70;99.90;;;;;;4993070;28;20030;-67
2021/07/09 04:59:52;;;;;;;20.40;17.77;;;15.70;99.90;;;;;;4992530;28;20022;-74
2021/07/09 05:02:18;;;;;;;22.00;18.63;;;15.60;99.90;;;;;;4992519;28;20026;-67
2021/07/09 05:04:43;;;;;;;19.77;17.65;;;15.60;99.90;;;;;;4986299;28;20072;-68
2021/07/09 05:07:09;;;;;;;23.85;18.58;;;15.60;99.90;;;;;;4975922;28;20045;-67
2021/07/09 05:09:34;;;;;;;20.85;18.65;;;15.60;99.90;;;;;;4992503;28;20031;-68
2021/07/09 05:12:00;;;;;;;24.70;18.73;;;15.60;99.90;;;;;;4975718;28;20032;-68
2021/07/09 05:14:27;;;;;;;25.63;18.08;;;15.60;99.90;;;;;;4992234;28;20090;-67
2021/07/09 05:16:53;;;;;;;22.80;20.35;;;15.60;99.90;;;;;;4993235;28;20018;-67
2021/07/09 05:19:19;;;;;;;22.60;18.83;;;15.60;99.90;;;;;;4992523;28;20029;-68
2021/07/09 05:21:44;;;;;;;21.58;18.63;;;15.60;99.90;;;;;;4992914;28;20094;-67
2021/07/09 05:24:12;;;;;;;23.65;19.98;;;15.60;99.90;;;;;;4992968;28;20033;-68
2021/07/09 05:26:38;;;;;;;21.70;19.15;;;15.60;99.90;;;;;;4996135;28;20037;-67
2021/07/09 05:29:04;;;;;;;21.58;17.77;;;15.70;99.90;;;;;;4985110;28;20109;-67
2021/07/09 05:31:32;;;;;;;30.38;19.23;;;15.70;99.90;;;;;;4988575;28;20084;-68
2021/07/09 05:33:58;;;;;;;26.65;19.85;;;15.70;99.90;;;;;;4976845;28;20475;-68
2021/07/09 05:36:24;;;;;;;24.17;19.25;;;15.70;99.90;;;;;;4978192;28;20058;-80
2021/07/09 05:38:49;;;;;;;24.42;19.27;;;15.70;99.90;;;;;;4995677;28;20026;-77
2021/07/09 05:41:15;;;;;;;23.98;19.17;;;15.80;99.90;;;;;;4994843;28;20038;-71
2021/07/09 05:43:42;;;;;;;23.02;17.38;;;15.90;99.90;;;;;;4995797;28;20030;-85
2021/07/09 05:46:07;;;;;;;23.35;18.40;;;15.90;99.90;;;;;;4978343;28;20027;-75
2021/07/09 05:48:33;;;;;;;23.85;18.27;;;15.90;99.90;;;;;;4978302;28;20528;-72
2021/07/09 05:50:59;;;;;;;23.48;19.33;;;15.90;99.90;;;;;;4994954;28;20033;-85
2021/07/09 05:53:24;;;;;;;22.85;18.17;;;16.00;99.90;;;;;;4978414;28;20031;-67
2021/07/09 05:55:50;;;;;;;22.48;18.85;;;16.10;99.90;;;;;;4994850;28;20026;-68
2021/07/09 05:58:16;;;;;;;25.02;18.90;;;16.10;99.90;;;;;;4978473;28;20475;-69
2021/07/09 06:00:42;;;;;;;28.50;18.70;;;16.10;99.90;;;;;;4994604;28;20034;-75
2021/07/09 06:03:08;;;;;;;19.45;17.33;;;16.20;99.90;;;;;;4993847;28;20035;-68
2021/07/09 06:05:34;;;;;;;19.55;17.30;;;16.20;99.90;;;;;;4978071;28;20414;-68
2021/07/09 06:08:07;;;;;;;19.45;16.77;;;16.30;99.90;;;;;;4996148;28;20034;-68
2021/07/09 06:10:33;;;;;;;19.40;16.60;;;16.30;99.90;;;;;;4995385;28;20042;-68
2021/07/09 06:12:59;;;;;;;20.13;15.45;;;16.40;99.90;;;;;;4996010;28;20048;-68
2021/07/09 06:15:25;;;;;;;20.88;16.52;;;16.40;99.90;;;;;;4978331;28;20521;-68
2021/07/09 06:17:51;;;;;;;18.38;16.25;;;16.50;99.90;;;;;;4995373;28;20023;-68
2021/07/09 06:20:17;;;;;;;18.50;15.18;;;16.50;99.90;;;;;;4996018;28;20438;-68
2021/07/09 06:22:43;;;;;;;16.50;13.18;;;16.60;99.90;;;;;;4995995;28;20026;-68
2021/07/09 06:25:09;;;;;;;14.00;12.13;;;16.60;99.90;;;;;;4994969;28;20455;-68
2021/07/09 06:27:35;;;;;;;13.55;11.60;;;16.70;99.90;;;;;;4995530;28;20050;-70
2021/07/09 06:30:00;;;;;;;12.48;11.13;;;16.80;99.90;;;;;;4995107;28;20019;-82
2021/07/09 06:32:26;;;;;;;13.60;10.55;;;16.80;99.90;;;;;;4978102;28;20429;-73
2021/07/09 06:34:52;;;;;;;11.52;10.23;;;16.90;99.90;;;;;;4995786;28;20411;-68
2021/07/09 06:37:17;;;;;;;9.68;8.63;;;17.00;99.90;;;;;;4993899;28;20582;-77
2021/07/09 06:39:43;;;;;;;9.85;8.80;;;17.00;99.90;;;;;;4995630;28;20499;-80
2021/07/09 06:42:08;;;;;;;8.18;7.22;;;17.10;99.90;;;;;;4977929;28;20116;-68
2021/07/09 06:44:34;;;;;;;10.30;7.93;;;17.20;99.90;;;;;;4994376;28;20053;-83
2021/07/09 06:46:59;;;;;;;7.70;7.00;;;17.30;99.90;;;;;;4995509;28;20121;-82
2021/07/09 06:49:25;;;;;;;8.25;6.22;;;17.30;99.90;;;;;;4995075;28;20106;-69
2021/07/09 06:51:50;;;;;;;6.65;5.95;;;17.40;99.90;;;;;;4963161;28;20027;-69
2021/07/09 06:54:16;;;;;;;6.15;5.43;;;17.50;99.90;;;;;;4994220;28;20030;-74
2021/07/09 06:56:41;;;;;;;8.40;6.55;;;17.60;99.90;;;;;;4994188;28;20039;-69
2021/07/09 06:59:07;;;;;;;7.03;5.53;;;17.70;99.90;;;;;;4993526;28;20034;-69
2021/07/09 07:01:32;;;;;;;7.43;5.68;;;17.80;99.90;;;;;;4994314;28;20467;-72
2021/07/09 07:03:58;;;;;;;6.28;5.18;;;17.80;99.90;;;;;;4994960;28;20050;-80
2021/07/09 07:06:23;;;;;;;5.70;5.10;;;17.90;99.90;;;;;;4992344;28;20490;-75
2021/07/09 07:08:49;;;;;;;5.70;5.20;;;18.00;99.90;;;;;;4999255;28;20027;-77
2021/07/09 07:11:15;;;;;;;6.50;5.00;;;18.10;99.90;;;;;;4998036;28;20038;-69
2021/07/09 07:13:40;;;;;;;6.22;4.97;;;18.10;99.90;;;;;;4999488;28;20386;-68
2021/07/09 07:16:07;;;;;;;5.13;4.68;;;18.20;99.90;;;;;;4992618;28;20026;-73
2021/07/09 07:18:33;;;;;;;5.45;4.85;;;18.30;99.90;;;;;;4993260;28;20018;-69
2021/07/09 07:20:59;;;;;;;5.97;5.38;;;18.30;99.90;;;;;;4992889;28;20033;-70
2021/07/09 07:23:24;;;;;;;6.95;5.75;;;18.30;99.90;;;;;;4993014;28;20027;-70
2021/07/09 07:25:50;;;;;;;6.95;5.75;;;18.40;99.90;;;;;;4985090;28;20084;-69
2021/07/09 07:28:17;;;;;;;6.47;5.63;;;18.50;99.90;;;;;;5012438;28;20044;-71
2021/07/09 07:30:43;;;;;;;7.03;6.07;;;18.50;99.90;;;;;;5012692;28;20030;-81
2021/07/09 07:33:11;;;;;;;11.00;9.23;;;18.60;99.90;;;;;;4996108;28;20569;-86
2021/07/09 07:35:39;;;;;;;9.10;6.75;;;18.60;99.90;;;;;;4975949;28;20026;-70
2021/07/09 07:38:05;;;;;;;8.65;6.88;;;18.70;99.90;;;;;;4993374;28;20023;-80
2021/07/09 07:40:31;;;;;;;9.68;6.68;;;18.70;99.90;;;;;;4975481;28;20026;-69
2021/07/09 07:42:57;;;;;;;9.43;7.43;;;18.80;99.90;;;;;;4993068;28;20023;-70
2021/07/09 07:45:22;;;;;;;6.22;5.60;;;18.80;99.90;;;;;;4993039;28;20053;-84
2021/07/09 07:47:48;;;;;;;7.80;5.20;;;19.00;99.90;;;;;;4993081;28;20117;-69
2021/07/09 07:50:16;;;;;;;7.00;5.50;;;19.00;99.90;;;;;;4992661;28;20566;-69
2021/07/09 07:52:42;;;;;;;5.93;5.10;;;19.10;99.90;;;;;;4975532;28;20034;-94
2021/07/09 07:55:08;;;;;;;7.22;5.22;;;19.20;99.90;;;;;;4992732;28;20371;-93
2021/07/09 07:57:33;;;;;;;7.15;5.72;;;19.30;99.90;;;;;;4976406;28;20026;-69
2021/07/09 08:00:01;;;;;;;8.18;4.97;;;19.40;99.90;;;;;;4993699;28;20565;-85
2021/07/09 08:02:27;;;;;;;6.68;5.57;;;19.40;99.90;;;;;;4992538;28;20048;-89
2021/07/09 08:04:52;;;;;;;5.15;4.57;;;19.40;99.90;;;;;;4994097;28;20097;-90
2021/07/09 08:07:18;;;;;;;5.90;5.30;;;19.50;99.90;;;;;;4993939;28;20599;-82
2021/07/09 08:09:43;;;;;;;7.45;4.90;;;19.50;99.90;;;;;;4992479;28;20018;-74
2021/07/09 08:12:09;;;;;;;6.30;5.20;;;19.60;99.90;;;;;;4993073;28;20037;-80
2021/07/09 08:14:36;;;;;;;6.57;5.45;;;19.60;99.90;;;;;;4992232;28;20026;-69
2021/07/09 08:17:05;;;;;;;5.28;4.78;;;19.60;99.90;;;;;;4991454;28;20038;-69
2021/07/09 08:19:31;;;;;;;5.90;5.05;;;19.70;99.90;;;;;;4975202;28;20015;-74
2021/07/09 08:21:57;;;;;;;5.15;4.57;;;19.80;99.90;;;;;;4975056;28;20033;-73
2021/07/09 08:24:22;;;;;;;4.15;3.75;;;19.80;99.90;;;;;;4981593;28;20527;-70
2021/07/09 08:26:48;;;;;;;6.15;4.63;;;19.90;99.90;;;;;;4982670;28;20046;-70
2021/07/09 08:29:13;;;;;;;6.10;5.10;;;20.10;99.90;;;;;;4991947;28;20041;-83
2021/07/09 08:31:39;;;;;;;6.03;5.43;;;20.20;99.90;;;;;;4993162;28;20030;-82
2021/07/09 08:34:05;;;;;;;8.68;6.40;;;20.20;99.90;;;;;;4994090;28;20530;-80
2021/07/09 08:36:31;;;;;;;8.38;6.60;;;20.30;99.90;;;;;;4988826;28;20553;-76
2021/07/09 08:38:57;;;;;;;10.00;6.95;;;20.20;99.90;;;;;;4992986;28;20046;-72
2021/07/09 08:41:23;;;;;;;7.22;6.53;;;20.30;99.90;;;;;;4991820;28;20069;-87
2021/07/09 08:43:49;;;;;;;7.18;6.35;;;20.30;99.90;;;;;;4992576;28;20105;-70
2021/07/09 08:46:15;;;;;;;10.77;6.72;;;20.30;99.90;;;;;;4981695;28;20099;-70
2021/07/09 08:48:42;;;;;;;5.90;5.32;;;20.30;99.90;;;;;;5012476;28;20057;-71
2021/07/09 08:51:09;;;;;;;7.70;6.20;;;20.40;99.90;;;;;;5011308;28;20470;-69
2021/07/09 08:53:35;;;;;;;6.40;4.78;;;20.50;99.90;;;;;;5012698;28;20482;-69
2021/07/09 08:56:01;;;;;;;7.05;4.35;;;20.60;99.90;;;;;;5000510;28;20474;-70
2021/07/09 08:58:26;;;;;;;5.97;4.90;;;20.70;99.90;;;;;;4990716;28;20085;-83
2021/07/09 09:00:53;;;;;;;5.93;5.10;;;20.90;99.90;;;;;;4994364;28;20073;-77
2021/07/09 09:03:24;;;;;;;6.30;5.22;;;21.00;99.90;;;;;;4993411;28;20109;-83
2021/07/09 09:05:51;;;;;;;7.28;6.07;;;21.00;99.90;;;;;;4996573;28;20026;-70
2021/07/09 09:08:20;;;;;;;7.50;4.85;;;21.00;99.60;;;;;;4996650;28;20042;-78
2021/07/09 09:10:52;;;;;;;7.53;5.82;;;21.00;99.90;;;;;;4995906;28;20399;-78
2021/07/09 09:13:30;;;;;;;7.82;5.97;;;21.20;99.90;;;;;;4995584;28;20026;-73
2021/07/09 09:16:12;;;;;;;5.25;4.75;;;21.60;99.90;;;;;;4996447;28;20019;-69
2021/07/09 09:18:49;;;;;;;7.07;4.97;;;22.20;99.90;;;;;;4996235;28;20034;-69
2021/07/09 09:21:19;;;;;;;8.40;5.80;;;22.70;99.90;;;;;;4978537;28;20434;-77
2021/07/09 09:23:50;;;;;;;7.35;6.25;;;23.10;99.20;;;;;;4977903;28;20022;-70
2021/07/09 09:26:37;;;;;;;6.38;5.55;;;23.40;98.00;;;;;;4995463;28;20058;-89
2021/07/09 09:29:03;;;;;;;8.52;6.15;;;23.60;97.50;;;;;;4995510;28;20030;-73
2021/07/09 09:31:34;;;;;;;7.43;6.15;;;23.60;97.50;;;;;;4978528;28;20105;-73
2021/07/09 09:34:04;;;;;;;7.70;6.32;;;23.60;97.90;;;;;;4978181;28;20109;-73
2021/07/09 09:36:30;;;;;;;8.65;6.57;;;23.60;97.20;;;;;;4995756;28;20378;-73
2021/07/09 09:38:59;;;;;;;8.20;7.20;;;23.60;96.90;;;;;;4994514;28;20026;-76
2021/07/09 09:41:25;;;;;;;7.35;6.53;;;23.50;96.80;;;;;;4995101;28;20109;-74
2021/07/09 09:43:51;;;;;;;7.75;7.05;;;23.40;97.10;;;;;;4978541;28;20042;-74
2021/07/09 09:46:26;;;;;;;11.85;8.00;;;23.30;97.70;;;;;;4978256;28;20034;-75
2021/07/09 09:48:51;;;;;;;10.82;9.20;;;23.30;97.50;;;;;;4977564;28;20406;-76
2021/07/09 09:51:34;;;;;;;9.68;8.75;;;23.30;97.60;;;;;;4994755;28;20014;-74
2021/07/09 09:54:01;;;;;;;11.40;9.82;;;23.30;97.90;;;;;;4977779;28;20041;-74
2021/07/09 09:56:34;;;;;;;10.25;9.25;;;23.50;97.70;;;;;;4977746;28;20026;-75
2021/07/09 09:59:23;;;;;;;12.02;10.70;;;23.70;97.70;;;;;;4977274;28;20076;-74
2021/07/09 10:01:57;;;;;;;11.13;10.00;;;23.80;97.10;;;;;;4968120;28;20033;-75
2021/07/09 10:04:25;;;;;;;11.10;9.88;;;23.70;97.50;;;;;;4977574;28;20031;-75
2021/07/09 10:06:51;;;;;;;11.93;9.85;;;23.70;97.10;;;;;;4995578;28;20113;-77
2021/07/09 10:09:18;;;;;;;11.20;8.35;;;23.80;96.80;;;;;;4994695;28;20025;-77
2021/07/09 10:11:45;;;;;;;9.38;8.43;;;23.90;97.50;;;;;;4978116;28;20402;-71
2021/07/09 10:14:13;;;;;;;12.18;9.77;;;23.90;97.00;;;;;;4994139;28;20030;-75
2021/07/09 10:16:40;;;;;;;11.57;9.32;;;23.90;96.60;;;;;;4994654;28;20026;-70
2021/07/09 10:19:11;;;;;;;10.30;8.50;;;23.70;97.10;;;;;;4994407;28;20100;-69
2021/07/09 10:21:38;;;;;;;10.43;8.95;;;23.50;97.80;;;;;;4994889;28;20379;-69
2021/07/09 10:24:05;;;;;;;9.60;8.02;;;23.50;97.70;;;;;;4994686;28;20022;-87
2021/07/09 10:26:33;;;;;;;10.68;8.30;;;23.70;97.60;;;;;;4995448;28;20042;-69
2021/07/09 10:29:13;;;;;;;9.73;8.57;;;23.90;97.50;;;;;;4995075;28;20034;-69
2021/07/09 10:31:40;;;;;;;8.85;7.18;;;24.10;97.60;;;;;;4983237;28;20109;-69
2021/07/09 10:34:27;;;;;;;9.10;8.07;;;24.50;97.30;;;;;;4994631;28;20117;-78
2021/07/09 10:37:00;;;;;;;11.57;7.35;;;24.90;96.30;;;;;;4994586;28;20077;-70
2021/07/09 10:39:36;;;;;;;8.68;7.78;;;25.20;95.90;;;;;;4994633;28;20034;-78
2021/07/09 10:42:11;;;;;;;7.25;6.55;;;25.40;94.40;;;;;;4994208;28;20138;-69
2021/07/09 10:44:37;;;;;;;6.78;6.07;;;25.50;93.60;;;;;;4987605;28;20041;-69
2021/07/09 10:47:16;;;;;;;7.18;6.30;;;25.60;93.40;;;;;;4994104;28;20031;-69
2021/07/09 10:49:51;;;;;;;7.22;6.53;;;25.70;93.30;;;;;;4993678;28;20022;-68
2021/07/09 10:52:45;;;;;;;10.02;7.03;;;25.80;93.80;;;;;;4993883;28;20172;-73
2021/07/09 10:55:27;;;;;;;7.35;5.85;;;25.90;93.40;;;;;;4994435;28;20022;-73
2021/07/09 10:58:07;;;;;;;;;;;26.00;92.20;;;;;;4994138;28;20027;-73
2021/07/09 11:01:03;;;;;;;17.77;8.82;;;25.80;90.80;;;;;;4994648;28;20408;-73
2021/07/09 11:03:37;;;;;;;19.45;10.85;;;25.70;91.70;;;;;;4957594;28;20066;-79
2021/07/09 11:06:22;;;;;;;10.45;7.40;;;25.70;92.00;;;;;;4993204;28;20062;-73
2021/07/09 11:09:18;;;;;;;7.53;5.20;;;25.50;93.00;;;;;;4976353;28;20050;-70
2021/07/09 11:11:47;;;;;;;5.32;3.42;;;25.50;90.30;;;;;;4971057;28;20560;-71
2021/07/09 11:14:28;;;;;;;8.40;6.88;;;25.30;90.20;;;;;;4994998;28;20030;-71
2021/07/09 11:16:59;;;;;;;8.07;6.35;;;25.30;91.30;;;;;;4993708;28;20034;-71
2021/07/09 11:19:33;;;;;;;9.88;6.57;;;25.40;92.20;;;;;;4992004;28;20034;-76
2021/07/09 11:22:07;;;;;;;8.15;6.45;;;25.50;92.50;;;;;;4993008;28;20026;-72
2021/07/09 11:24:39;;;;;;;8.25;6.78;;;25.60;92.50;;;;;;4993065;28;20121;-71
2021/07/09 11:27:07;;;;;;;8.50;6.50;;;25.60;92.10;;;;;;4992816;28;20186;-70
2021/07/09 11:29:41;;;;;;;8.85;6.45;;;25.70;91.10;;;;;;4992542;28;20105;-84
2021/07/09 11:32:16;;;;;;;7.53;5.60;;;25.60;90.80;;;;;;4990370;28;20026;-70
2021/07/09 11:34:50;;;;;;;5.97;5.22;;;25.50;90.60;;;;;;4992168;28;20032;-77
2021/07/09 11:37:21;;;;;;;8.25;5.90;;;25.20;90.70;;;;;;4993827;28;20034;-69
2021/07/09 11:39:57;;;;;;;8.18;7.32;;;25.00;90.80;;;;;;4975844;28;20117;-69
2021/07/09 11:42:28;;;;;;;8.35;6.82;;;24.90;92.60;;;;;;4993752;28;20033;-69
2021/07/09 11:44:56;;;;;;;11.50;7.85;;;24.80;92.80;;;;;;4975538;28;20114;-70
2021/07/09 11:47:27;;;;;;;10.38;8.68;;;24.70;93.00;;;;;;4992167;28;20046;-78
2021/07/09 11:49:55;;;;;;;7.30;6.60;;;24.60;93.00;;;;;;4994709;28;20374;-72
2021/07/09 11:52:23;;;;;;;9.30;6.53;;;24.40;92.80;;;;;;4993228;28;20093;-71
2021/07/09 11:54:50;;;;;;;6.80;6.20;;;24.40;92.30;;;;;;4991882;28;20026;-82
2021/07/09 11:57:22;;;;;;;8.27;7.18;;;24.30;92.00;;;;;;4992448;28;20018;-74
2021/07/09 11:59:49;;;;;;;9.65;7.65;;;24.30;92.30;;;;;;4993277;28;20078;-71
2021/07/09 12:02:23;;;;;;;6.93;6.18;;;24.20;92.60;;;;;;4986375;28;20030;-74
2021/07/09 12:04:57;;;;;;;7.40;6.70;;;24.20;93.10;;;;;;4988176;28;20018;-75
2021/07/09 12:07:24;;;;;;;8.48;7.53;;;24.30;93.00;;;;;;4986545;28;20042;-70
2021/07/09 12:09:55;;;;;;;7.63;6.93;;;24.40;93.00;;;;;;4983862;28;20089;-76
2021/07/09 12:12:23;;;;;;;9.10;6.60;;;24.60;92.80;;;;;;4973814;28;20093;-73
2021/07/09 12:14:55;;;;;;;7.75;6.97;;;24.70;92.80;;;;;;4972906;28;20023;-79
2021/07/09 12:17:22;;;;;;;8.93;6.93;;;25.00;92.40;;;;;;4973687;28;20467;-70
2021/07/09 12:20:00;;;;;;;9.38;6.85;;;25.10;92.00;;;;;;4986784;28;20050;-75
2021/07/09 12:22:29;;;;;;;9.48;6.80;;;25.00;91.80;;;;;;4987340;28;20109;-81
2021/07/09 12:24:55;;;;;;;9.30;6.80;;;24.80;91.00;;;;;;4975277;28;20024;-73
2021/07/09 12:27:21;;;;;;;6.93;6.20;;;24.70;91.40;;;;;;4991840;28;20039;-78
2021/07/09 12:29:47;;;;;;;7.20;6.50;;;24.60;91.70;;;;;;4992165;28;20077;-71
2021/07/09 12:32:13;;;;;;;9.18;6.72;;;24.50;91.30;;;;;;4992360;28;20022;-70
2021/07/09 12:34:39;;;;;;;7.35;5.32;;;24.30;90.80;;;;;;4974587;28;20025;-74
2021/07/09 12:37:05;;;;;;;5.82;4.88;;;24.20;90.70;;;;;;4991716;28;20033;-77
2021/07/09 12:39:31;;;;;;;7.75;5.95;;;24.10;91.10;;;;;;4992813;28;20041;-72